Terminal Aerodrome Forecast
Issued by NWS

Home | Current Version | Previous Version | Text Only | Print | Product List | Glossary On
Versions: 1 2 3 4 5 6 7 8 9 10 11 12 13 14 15 16 17 18 19 20
000
FTAK31 PAJN 121100
TAFASI
TAF
PASI 121134Z 1212/1312 34006KT P6SM -RA FEW007 SCT012 OVC030
      TEMPO 1212/1216 3SM -RA BR OVC007
     FM121600 14008KT 5SM -RA BR SCT007 OVC012
     FM122100 20005KT 4SM RA BR BKN007 OVC012
     FM130300 20004KT 6SM -RA BR SCT007 OVC015
     FM130900 25006KT 5SM RA BR BKN007 OVC012=

USA.gov is the U.S. government's official web portal to all federal, state and local government web resources and services.